createdAt,value
2018-06-25T00:02:14.040Z,98.90
2018-06-25T00:04:42.500Z,98.90
2018-06-25T00:09:39.050Z,98.80
2018-06-25T00:14:35.705Z,98.70
2018-06-25T00:17:04.255Z,98.70
2018-06-25T00:19:32.753Z,98.80
2018-06-25T00:22:02.121Z,98.70
2018-06-25T00:24:30.672Z,98.70
2018-06-25T00:26:59.257Z,98.90
2018-06-25T00:29:27.712Z,99.10
2018-06-25T00:32:00.973Z,99.10
2018-06-25T00:34:29.532Z,99.10
2018-06-25T00:36:58.142Z,98.90
2018-06-25T00:39:26.991Z,98.90
2018-06-25T00:41:55.445Z,98.90
2018-06-25T00:44:23.922Z,99.00
2018-06-25T00:46:52.365Z,99.20
2018-06-25T00:49:20.837Z,99.30
2018-06-25T00:51:49.282Z,99.40
2018-06-25T00:54:17.739Z,99.40
2018-06-25T00:56:46.183Z,99.60
2018-06-25T00:59:25.871Z,99.40
2018-06-25T01:01:54.296Z,99.40
2018-06-25T01:04:22.861Z,99.40
2018-06-25T01:06:51.342Z,99.40
2018-06-25T01:09:19.851Z,99.40
2018-06-25T01:11:48.337Z,99.30
2018-06-25T01:14:16.775Z,99.30
2018-06-25T01:16:45.264Z,99.30
2018-06-25T01:19:13.700Z,99.30
2018-06-25T01:21:48.856Z,99.20
2018-06-25T01:24:17.395Z,99.20
2018-06-25T01:26:46.083Z,99.20
2018-06-25T01:29:14.518Z,99.30
2018-06-25T01:31:42.988Z,99.30
2018-06-25T01:34:11.526Z,99.30
2018-06-25T01:36:39.986Z,99.30
2018-06-25T01:39:10.152Z,99.30
2018-06-25T01:41:38.744Z,99.40
2018-06-25T01:46:36.098Z,99.50
2018-06-25T01:49:05.008Z,99.50
2018-06-25T01:51:33.600Z,99.60
2018-06-25T01:54:02.066Z,99.50
2018-06-25T01:56:30.733Z,99.70
2018-06-25T01:58:59.336Z,99.70
2018-06-25T02:01:27.817Z,99.50
2018-06-25T02:03:59.013Z,99.50
2018-06-25T02:06:27.471Z,99.50
2018-06-25T02:08:55.951Z,99.40
2018-06-25T02:11:24.439Z,99.30
2018-06-25T02:13:52.951Z,99.40
2018-06-25T02:16:21.437Z,99.40
2018-06-25T02:18:50.385Z,99.30
2018-06-25T02:21:18.977Z,99.30
2018-06-25T02:23:47.479Z,99.30
2018-06-25T02:26:16.087Z,99.40
2018-06-25T02:28:44.618Z,99.30
2018-06-25T02:31:13.132Z,99.20
2018-06-25T02:33:41.659Z,99.30
2018-06-25T02:38:38.345Z,99.70
2018-06-25T02:41:06.797Z,99.50
2018-06-25T02:43:35.200Z,99.50
2018-06-25T02:46:03.707Z,99.40
2018-06-25T02:48:32.208Z,99.40
2018-06-25T02:51:00.666Z,99.60
2018-06-25T02:53:29.326Z,99.60
2018-06-25T02:55:57.837Z,99.80
2018-06-25T02:58:26.387Z,99.90
2018-06-25T03:00:54.868Z,99.90
2018-06-25T03:03:23.441Z,99.90
2018-06-25T03:05:51.973Z,99.90
2018-06-25T03:08:20.580Z,99.90
2018-06-25T03:10:49.100Z,99.90
2018-06-25T03:13:17.678Z,99.90
2018-06-25T03:15:46.114Z,99.90
2018-06-25T03:18:14.747Z,99.90
2018-06-25T03:20:43.274Z,99.90
2018-06-25T03:23:12.359Z,99.90
2018-06-25T03:25:40.906Z,99.90
2018-06-25T03:28:09.433Z,99.90
2018-06-25T03:30:37.932Z,99.90
2018-06-25T03:33:06.346Z,99.90
2018-06-25T03:35:35.632Z,99.90
2018-06-25T03:40:32.182Z,99.90
2018-06-25T03:43:00.628Z,99.90
2018-06-25T03:45:29.116Z,99.90
2018-06-25T03:47:57.782Z,99.90
2018-06-25T03:50:26.360Z,99.90
2018-06-25T03:52:54.760Z,99.90
2018-06-25T03:55:23.232Z,99.90
2018-06-25T03:57:51.884Z,99.90
2018-06-25T04:00:20.344Z,99.90
2018-06-25T04:02:48.780Z,99.90
2018-06-25T04:05:17.228Z,99.90
2018-06-25T04:07:45.642Z,99.90
2018-06-25T04:10:14.124Z,99.90
2018-06-25T04:12:42.582Z,99.90
2018-06-25T04:15:11.115Z,99.90
2018-06-25T04:17:39.524Z,99.90
2018-06-25T04:20:08.164Z,99.90
2018-06-25T04:22:36.603Z,99.90
2018-06-25T04:25:05.055Z,99.90
2018-06-25T04:27:33.523Z,99.90
2018-06-25T04:30:01.979Z,99.90
2018-06-25T04:32:30.574Z,99.90
2018-06-25T04:34:59.066Z,99.90
2018-06-25T04:37:27.531Z,99.90
2018-06-25T04:39:55.987Z,99.90
2018-06-25T04:42:24.493Z,99.90
2018-06-25T04:44:53.761Z,99.90
2018-06-25T04:47:22.227Z,99.90
2018-06-25T04:49:50.796Z,99.90
2018-06-25T04:52:19.292Z,99.90
2018-06-25T04:54:47.838Z,99.90
2018-06-25T04:57:16.356Z,99.90
2018-06-25T04:59:45.375Z,99.90
2018-06-25T05:02:13.933Z,99.90
2018-06-25T05:04:42.591Z,99.90
2018-06-25T05:07:11.014Z,99.90
2018-06-25T05:09:39.597Z,99.90
2018-06-25T05:12:07.999Z,99.90
2018-06-25T05:14:36.498Z,99.90
2018-06-25T05:17:05.153Z,99.90
2018-06-25T05:19:33.662Z,99.90
2018-06-25T05:22:02.101Z,99.90
2018-06-25T05:24:30.592Z,99.80
2018-06-25T05:26:59.957Z,99.80
2018-06-25T05:29:28.394Z,99.70
2018-06-25T05:31:57.225Z,99.70
2018-06-25T05:34:25.671Z,99.80
2018-06-25T05:36:55.575Z,99.70
2018-06-25T05:39:24.576Z,99.90
2018-06-25T05:41:53.158Z,99.90
2018-06-25T05:44:21.633Z,99.90
2018-06-25T05:46:50.186Z,99.90
2018-06-25T05:49:18.696Z,99.90
2018-06-25T05:51:47.204Z,99.90
2018-06-25T05:56:43.986Z,99.90
2018-06-25T05:59:12.409Z,99.90
2018-06-25T06:01:40.881Z,99.90
2018-06-25T06:04:09.440Z,99.90
2018-06-25T06:06:37.900Z,99.90
2018-06-25T06:09:08.445Z,99.90
2018-06-25T06:11:36.963Z,99.90
2018-06-25T06:14:05.453Z,99.90
2018-06-25T06:16:33.913Z,99.90
2018-06-25T06:19:02.651Z,99.90
2018-06-25T06:23:59.260Z,99.90
2018-06-25T06:26:27.718Z,99.80
2018-06-25T06:28:56.129Z,99.60
2018-06-25T06:31:24.595Z,99.60
2018-06-25T06:33:53.222Z,99.70
2018-06-25T06:38:49.767Z,99.60
2018-06-25T06:41:18.223Z,99.60
2018-06-25T06:43:46.667Z,99.50
2018-06-25T06:46:15.126Z,99.40
2018-06-25T06:48:43.556Z,99.00
2018-06-25T06:51:12.000Z,99.10
2018-06-25T06:53:40.414Z,99.00
2018-06-25T06:56:09.001Z,98.80
2018-06-25T06:58:37.518Z,98.90
2018-06-25T07:03:34.376Z,98.90
2018-06-25T07:08:31.202Z,98.50
2018-06-25T07:10:59.624Z,98.40
2018-06-25T07:13:28.050Z,98.30
2018-06-25T07:15:56.558Z,98.20
2018-06-25T07:18:25.028Z,98.10
2018-06-25T07:20:53.735Z,97.80
2018-06-25T07:23:22.152Z,97.40
2018-06-25T07:25:50.656Z,96.90
2018-06-25T07:28:19.119Z,96.70
2018-06-25T07:30:47.536Z,96.50
2018-06-25T07:33:16.041Z,96.80
2018-06-25T07:35:44.574Z,96.90
2018-06-25T07:38:13.048Z,97.00
2018-06-25T07:40:41.636Z,96.90
2018-06-25T07:43:10.098Z,96.50
2018-06-25T07:45:38.662Z,96.20
2018-06-25T07:48:07.122Z,96.30
2018-06-25T07:50:35.560Z,96.30
2018-06-25T07:53:04.074Z,96.50
2018-06-25T07:55:32.526Z,96.60
2018-06-25T07:58:01.004Z,96.60
2018-06-25T08:00:29.476Z,96.20
2018-06-25T08:02:58.122Z,95.80
2018-06-25T08:05:26.592Z,95.80
2018-06-25T08:07:55.016Z,96.30
2018-06-25T08:10:23.501Z,96.50
2018-06-25T08:12:51.945Z,96.60
2018-06-25T08:17:48.692Z,96.20
2018-06-25T08:20:17.216Z,96.30
2018-06-25T08:25:13.908Z,96.30
2018-06-25T08:27:42.445Z,96.50
2018-06-25T08:30:10.951Z,96.60
2018-06-25T08:32:39.407Z,96.40
2018-06-25T08:35:08.018Z,96.30
2018-06-25T08:37:36.461Z,95.70
2018-06-25T08:40:05.260Z,95.90
2018-06-25T08:45:02.108Z,95.70
2018-06-25T08:47:30.627Z,95.90
2018-06-25T08:49:59.072Z,96.00
2018-06-25T08:52:27.653Z,96.20
2018-06-25T08:54:56.152Z,96.50
2018-06-25T08:57:24.703Z,96.50
2018-06-25T08:59:53.111Z,96.50
2018-06-25T09:02:21.678Z,96.50
2018-06-25T09:07:18.240Z,96.10
2018-06-25T09:09:46.698Z,96.10
2018-06-25T09:12:17.453Z,95.80
2018-06-25T09:14:45.980Z,95.50
2018-06-25T09:17:14.473Z,95.20
2018-06-25T09:19:43.064Z,95.50
2018-06-25T09:22:11.659Z,95.80
2018-06-25T09:24:40.249Z,96.00
2018-06-25T09:27:08.713Z,95.90
2018-06-25T09:29:37.164Z,96.30
2018-06-25T09:32:05.679Z,95.90
2018-06-25T09:34:39.447Z,95.60
2018-06-25T09:37:07.955Z,95.30
2018-06-25T09:39:36.501Z,95.10
2018-06-25T09:42:05.119Z,94.20
2018-06-25T09:44:33.632Z,93.60
2018-06-25T09:47:02.200Z,93.20
2018-06-25T09:49:30.618Z,92.90
2018-06-25T09:51:59.259Z,93.00
2018-06-25T09:54:27.841Z,93.40
2018-06-25T09:56:56.247Z,93.50
2018-06-25T09:59:24.699Z,93.60
2018-06-25T10:01:53.212Z,93.30
2018-06-25T10:04:21.661Z,93.10
2018-06-25T10:06:50.143Z,93.10
2018-06-25T10:09:19.458Z,93.40
2018-06-25T10:11:47.944Z,93.20
2018-06-25T10:14:16.343Z,92.70
2018-06-25T10:16:44.845Z,91.30
2018-06-25T10:19:13.319Z,90.70
2018-06-25T10:21:41.991Z,91.10
2018-06-25T10:24:10.543Z,91.70
2018-06-25T10:26:39.011Z,91.70
2018-06-25T10:29:07.508Z,91.30
2018-06-25T10:31:35.939Z,91.50
2018-06-25T10:34:04.801Z,91.70
2018-06-25T10:36:33.417Z,90.70
2018-06-25T10:39:01.994Z,89.20
2018-06-25T10:41:30.659Z,89.20
2018-06-25T10:44:03.629Z,88.10
2018-06-25T10:46:32.073Z,87.20
2018-06-25T10:49:00.647Z,88.20
2018-06-25T10:51:29.076Z,87.90
2018-06-25T10:53:57.532Z,86.80
2018-06-25T10:56:26.012Z,87.60
2018-06-25T10:58:54.508Z,89.60
2018-06-25T11:01:23.241Z,90.60
2018-06-25T11:03:51.853Z,91.30
2018-06-25T11:06:20.323Z,91.20
2018-06-25T11:08:48.778Z,91.10
2018-06-25T11:11:17.306Z,91.20
2018-06-25T11:13:45.977Z,91.10
2018-06-25T11:16:15.313Z,91.30
2018-06-25T11:18:44.041Z,91.30
2018-06-25T11:21:12.521Z,91.30
2018-06-25T11:23:41.222Z,91.70
2018-06-25T11:26:09.674Z,91.90
2018-06-25T11:28:38.122Z,91.90
2018-06-25T11:31:06.609Z,91.70
2018-06-25T11:33:35.070Z,91.60
2018-06-25T11:36:03.706Z,91.50
2018-06-25T11:38:32.274Z,91.50
2018-06-25T11:41:00.770Z,92.00
2018-06-25T11:43:30.198Z,92.20
2018-06-25T11:45:58.716Z,92.40
2018-06-25T11:48:27.132Z,92.70
2018-06-25T11:50:55.594Z,92.70
2018-06-25T11:53:24.060Z,92.50
2018-06-25T11:55:52.588Z,92.20
2018-06-25T11:58:21.054Z,92.30
2018-06-25T12:00:49.496Z,91.90
2018-06-25T12:03:18.408Z,91.90
2018-06-25T12:05:46.580Z,91.70
2018-06-25T12:08:15.092Z,92.10
2018-06-25T12:10:43.537Z,92.00
2018-06-25T12:13:11.962Z,91.60
2018-06-25T12:15:41.501Z,91.60
2018-06-25T12:18:10.003Z,91.50
2018-06-25T12:20:38.568Z,91.60
2018-06-25T12:25:35.240Z,91.00
2018-06-25T12:30:31.874Z,91.80
2018-06-25T12:33:00.326Z,92.00
2018-06-25T12:35:28.832Z,91.90
2018-06-25T12:37:57.349Z,91.40
2018-06-25T12:40:25.720Z,91.30
2018-06-25T12:42:54.276Z,91.00
2018-06-25T12:45:22.681Z,90.60
2018-06-25T12:47:51.258Z,90.60
2018-06-25T12:50:19.749Z,90.30
2018-06-25T12:52:48.761Z,90.20
2018-06-25T12:55:17.264Z,89.90
2018-06-25T12:57:45.712Z,89.60
2018-06-25T13:00:14.354Z,89.90
2018-06-25T13:02:42.820Z,89.90
2018-06-25T13:05:11.254Z,90.20
2018-06-25T13:07:39.699Z,90.10
2018-06-25T13:10:08.468Z,90.10
2018-06-25T13:12:37.077Z,90.40
2018-06-25T13:15:05.600Z,90.30
2018-06-25T13:17:34.142Z,90.80
2018-06-25T13:20:02.622Z,90.60
2018-06-25T13:22:31.187Z,90.50
2018-06-25T13:24:59.904Z,90.20
2018-06-25T13:27:28.387Z,90.20
2018-06-25T13:29:57.036Z,90.20
2018-06-25T13:32:25.543Z,90.20
2018-06-25T13:34:54.012Z,89.70
2018-06-25T13:37:22.412Z,89.40
2018-06-25T13:39:50.901Z,88.40
2018-06-25T13:42:19.424Z,89.10
2018-06-25T13:44:48.065Z,88.80
2018-06-25T13:47:16.823Z,88.30
2018-06-25T13:49:45.298Z,88.00
2018-06-25T13:52:13.741Z,86.10
2018-06-25T13:54:42.277Z,85.90
2018-06-25T13:57:10.783Z,86.60
2018-06-25T13:59:39.196Z,86.40
2018-06-25T14:02:07.928Z,86.40
2018-06-25T14:04:36.644Z,87.00
2018-06-25T14:07:05.228Z,87.50
2018-06-25T14:09:33.712Z,87.50
2018-06-25T14:12:02.234Z,88.70
2018-06-25T14:14:30.701Z,88.40
2018-06-25T14:16:59.209Z,88.70
2018-06-25T14:19:27.760Z,88.10
2018-06-25T14:21:56.237Z,86.60
2018-06-25T14:24:30.281Z,83.50
2018-06-25T14:27:04.087Z,82.60
2018-06-25T14:29:33.211Z,83.50
2018-06-25T14:32:06.882Z,81.90
2018-06-25T14:34:35.350Z,81.70
2018-06-25T14:37:03.823Z,78.80
2018-06-25T14:39:32.395Z,78.00
2018-06-25T14:42:01.001Z,78.30
2018-06-25T14:44:29.436Z,77.10
2018-06-25T14:47:06.426Z,75.50
2018-06-25T14:49:34.934Z,76.60
2018-06-25T14:52:03.443Z,76.70
2018-06-25T14:54:32.487Z,77.60
2018-06-25T14:57:00.978Z,77.40
2018-06-25T14:59:29.501Z,77.00
2018-06-25T15:01:58.056Z,77.90
2018-06-25T15:04:26.454Z,78.30
2018-06-25T15:06:54.898Z,77.70
2018-06-25T15:09:23.549Z,77.90
2018-06-25T15:11:51.930Z,77.80
2018-06-25T15:14:20.376Z,77.50
2018-06-25T15:16:48.899Z,78.00
2018-06-25T15:19:17.842Z,78.60
2018-06-25T15:21:46.273Z,78.50
2018-06-25T15:24:14.736Z,78.80
2018-06-25T15:26:43.184Z,79.10
2018-06-25T15:29:11.689Z,78.90
2018-06-25T15:34:08.298Z,77.50
2018-06-25T15:36:36.723Z,76.10
2018-06-25T15:39:08.581Z,76.20
2018-06-25T15:41:37.763Z,76.80
2018-06-25T15:44:08.270Z,78.10
2018-06-25T15:46:37.391Z,80.10
2018-06-25T15:49:05.896Z,79.80
2018-06-25T15:51:34.409Z,81.00
2018-06-25T15:54:03.405Z,81.80
2018-06-25T15:56:31.824Z,81.60
2018-06-25T15:59:00.766Z,80.80
2018-06-25T16:01:29.206Z,80.00
2018-06-25T16:03:57.721Z,79.60
2018-06-25T16:06:26.337Z,80.90
2018-06-25T16:08:54.935Z,80.90
2018-06-25T16:11:23.953Z,81.20
2018-06-25T16:13:52.604Z,81.20
2018-06-25T16:16:21.559Z,80.70
2018-06-25T16:18:50.376Z,80.70
2018-06-25T16:21:20.257Z,81.30
2018-06-25T16:23:49.837Z,81.70
2018-06-25T16:26:18.395Z,81.80
2018-06-25T16:28:47.098Z,82.10
2018-06-25T16:31:15.471Z,82.10
2018-06-25T16:33:43.987Z,82.70
2018-06-25T16:36:12.992Z,83.00
2018-06-25T16:38:41.714Z,83.00
2018-06-25T16:41:10.416Z,83.00
2018-06-25T16:43:39.145Z,82.30
2018-06-25T16:46:07.676Z,82.20
2018-06-25T16:48:36.234Z,81.20
2018-06-25T16:51:05.428Z,81.90
2018-06-25T16:53:33.912Z,82.20
2018-06-25T16:56:02.915Z,82.30
2018-06-25T16:58:31.366Z,83.20
2018-06-25T17:00:59.958Z,83.50
2018-06-25T17:03:28.496Z,83.50
2018-06-25T17:05:56.948Z,83.70
2018-06-25T17:08:25.432Z,83.80
2018-06-25T17:10:53.952Z,83.20
2018-06-25T17:13:22.410Z,83.40
2018-06-25T17:15:50.901Z,82.90
2018-06-25T17:18:19.360Z,82.50
2018-06-25T17:20:47.837Z,82.60
2018-06-25T17:23:16.355Z,81.70
2018-06-25T17:25:44.804Z,81.80
2018-06-25T17:28:13.359Z,82.00
2018-06-25T17:30:41.836Z,81.70
2018-06-25T17:33:10.533Z,81.90
2018-06-25T17:35:38.978Z,82.10
2018-06-25T17:38:07.499Z,82.50
2018-06-25T17:40:36.590Z,82.70
2018-06-25T17:43:05.213Z,83.00
2018-06-25T17:45:33.749Z,83.20
2018-06-25T17:48:02.277Z,82.60
2018-06-25T17:50:30.966Z,82.90
2018-06-25T17:52:59.507Z,83.30
2018-06-25T17:55:27.947Z,82.80
2018-06-25T17:57:56.480Z,82.80
2018-06-25T18:00:25.191Z,82.70
2018-06-25T18:02:54.267Z,83.00
2018-06-25T18:05:22.740Z,83.10
2018-06-25T18:07:52.071Z,83.20
2018-06-25T18:12:48.749Z,82.50
2018-06-25T18:15:17.237Z,81.60
2018-06-25T18:17:45.841Z,82.30
2018-06-25T18:20:14.261Z,82.00
2018-06-25T18:22:42.776Z,82.20
2018-06-25T18:25:12.622Z,82.60
2018-06-25T18:27:41.152Z,82.10
2018-06-25T18:30:10.764Z,82.60
2018-06-25T18:35:07.716Z,82.30
2018-06-25T18:37:36.147Z,83.70
2018-06-25T18:40:05.087Z,84.10
2018-06-25T18:42:34.273Z,83.20
2018-06-25T18:45:02.676Z,84.10
2018-06-25T18:47:31.136Z,83.50
2018-06-25T18:49:59.648Z,83.90
2018-06-25T18:52:28.160Z,84.10
2018-06-25T18:54:56.692Z,84.10
2018-06-25T18:57:25.232Z,82.60
2018-06-25T18:59:53.728Z,81.30
2018-06-25T19:02:22.227Z,83.20
2018-06-25T19:04:50.739Z,81.00
2018-06-25T19:07:19.337Z,81.80
2018-06-25T19:09:47.822Z,82.20
2018-06-25T19:12:16.952Z,82.40
2018-06-25T19:14:45.416Z,82.30
2018-06-25T19:17:13.891Z,82.70
2018-06-25T19:19:42.359Z,82.90
2018-06-25T19:22:10.999Z,83.20
2018-06-25T19:24:46.466Z,83.80
2018-06-25T19:27:15.451Z,84.30
2018-06-25T19:29:44.095Z,84.50
2018-06-25T19:32:12.579Z,85.30
2018-06-25T19:34:41.276Z,85.30
2018-06-25T19:37:10.200Z,86.40
2018-06-25T19:39:38.673Z,86.00
2018-06-25T19:42:07.196Z,86.10
2018-06-25T19:44:35.656Z,85.80
2018-06-25T19:47:04.342Z,85.50
2018-06-25T19:49:33.018Z,84.40
2018-06-25T19:52:01.554Z,85.50
2018-06-25T19:54:30.159Z,86.10
2018-06-25T19:56:58.717Z,85.70
2018-06-25T19:59:27.369Z,85.60
2018-06-25T20:01:55.832Z,86.90
2018-06-25T20:04:24.463Z,86.90
2018-06-25T20:06:52.912Z,87.60
2018-06-25T20:09:21.361Z,86.50
2018-06-25T20:11:49.841Z,87.00
2018-06-25T20:14:18.353Z,87.20
2018-06-25T20:16:46.871Z,87.30
2018-06-25T20:19:15.292Z,87.60
2018-06-25T20:21:43.752Z,87.30
2018-06-25T20:24:12.513Z,87.60
2018-06-25T20:26:41.002Z,88.80
2018-06-25T20:29:09.600Z,89.40
2018-06-25T20:31:38.012Z,88.30
2018-06-25T20:34:06.475Z,87.30
2018-06-25T20:36:34.935Z,86.80
2018-06-25T20:39:04.188Z,87.30
2018-06-25T20:41:32.626Z,84.60
2018-06-25T20:44:01.082Z,84.70
2018-06-25T20:46:29.594Z,85.30
2018-06-25T20:48:58.636Z,86.20
2018-06-25T20:51:27.304Z,86.90
2018-06-25T20:53:55.920Z,87.80
2018-06-25T20:56:29.732Z,88.50
2018-06-25T20:58:58.159Z,89.10
2018-06-25T21:01:26.693Z,89.80
2018-06-25T21:03:55.201Z,90.00
2018-06-25T21:06:23.717Z,90.30
2018-06-25T21:08:52.215Z,90.50
2018-06-25T21:11:21.659Z,90.70
2018-06-25T21:13:50.151Z,90.90
2018-06-25T21:16:18.573Z,91.40
2018-06-25T21:18:47.089Z,91.80
2018-06-25T21:21:15.625Z,92.30
2018-06-25T21:23:44.301Z,92.70
2018-06-25T21:26:12.767Z,93.10
2018-06-25T21:28:41.183Z,93.30
2018-06-25T21:31:09.805Z,93.90
2018-06-25T21:33:38.233Z,93.50
2018-06-25T21:36:06.837Z,93.80
2018-06-25T21:38:35.237Z,93.80
2018-06-25T21:41:03.694Z,93.60
2018-06-25T21:43:32.236Z,93.90
2018-06-25T21:46:00.826Z,93.70
2018-06-25T21:48:29.318Z,93.60
2018-06-25T21:50:57.758Z,93.10
2018-06-25T21:53:26.224Z,93.00
2018-06-25T21:55:54.675Z,93.20
2018-06-25T21:58:23.223Z,93.20
2018-06-25T22:00:52.834Z,93.40
2018-06-25T22:03:21.258Z,93.50
2018-06-25T22:05:50.434Z,93.50
2018-06-25T22:08:18.906Z,93.50
2018-06-25T22:10:47.411Z,93.60
2018-06-25T22:13:15.888Z,93.50
2018-06-25T22:15:44.332Z,93.50
2018-06-25T22:18:12.984Z,93.50
2018-06-25T22:23:09.560Z,93.60
2018-06-25T22:25:37.981Z,94.00
2018-06-25T22:28:06.436Z,94.30
2018-06-25T22:30:35.440Z,94.70
2018-06-25T22:33:03.880Z,94.90
2018-06-25T22:35:32.362Z,95.00
2018-06-25T22:38:00.800Z,95.30
2018-06-25T22:40:29.248Z,95.50
2018-06-25T22:42:57.749Z,95.20
2018-06-25T22:45:26.280Z,95.30
2018-06-25T22:47:54.788Z,95.50
2018-06-25T22:50:23.453Z,95.60
2018-06-25T22:52:52.048Z,95.80
2018-06-25T22:55:20.506Z,96.00
2018-06-25T23:00:17.130Z,96.10
2018-06-25T23:02:45.577Z,96.10
2018-06-25T23:05:14.047Z,96.10
2018-06-25T23:07:42.441Z,96.10
2018-06-25T23:10:10.940Z,96.20
2018-06-25T23:12:39.375Z,96.20
2018-06-25T23:15:07.833Z,96.30
2018-06-25T23:17:36.295Z,96.80
2018-06-25T23:20:05.118Z,96.50
2018-06-25T23:25:01.949Z,96.70
2018-06-25T23:27:30.437Z,96.90
2018-06-25T23:29:58.875Z,97.10
2018-06-25T23:32:27.311Z,97.20
2018-06-25T23:34:56.498Z,97.40
2018-06-25T23:37:24.958Z,97.50
2018-06-25T23:39:53.427Z,97.50
2018-06-25T23:42:21.855Z,97.50
2018-06-25T23:44:50.357Z,97.60
2018-06-25T23:47:18.821Z,97.60
2018-06-25T23:52:15.839Z,97.80
2018-06-25T23:54:44.367Z,97.50
2018-06-25T23:57:12.832Z,97.60
2018-06-25T23:59:41.387Z,97.80
